PWSweather.com
Personal Weather Stations
Station Observations
KPASPRIN10
East Vincent, East Vincent, PA 19475

East VincentEast Vincent, PA 19475

Lat: 40.170948, Lon: -75.629681

Elevation: 404

Station Type: Davis VP2

http://www.evweather.com

Latest ConditionsUpdated 2:50:03 PM EDT Saturday, Aug 24, 2019
Currently Today's Max Today's Min Today's Average
Temperature 74.7°F23.7°C 75.4°F24.1°C 56.1°F13.4°C 64.3°F17.9°C
Dew Point 55.4°F13.0°C 60.4°F15.8°C 53.8°F12.1°C 56.6°F13.7°C
Winds 1.2 mph NE1.9 kmh NE 6.9 mph -11.1 kmh - - 2.6 mph 4.2 kmh
Wind Gusts 2.3 mph3.7 kmh 11.5 mph18.5 kmh - -
Humidity 51% 92% 51% 78%
Pressure 30.15 in1021.0 mb 30.18 in1022.0 mb 30.06 in1017.9 mb -
Hour Temp Dew Point Humidity Winds Wind Gusts Pressure Precip Precip Rate Daily Precip Total
02:50 PM 74.7°F23.7°C 55.4°F13.0°C 51% 1.2 mph NE1.9 kmh NE 2.3 mph3.7 kmh 30.15 in1021.0 mb - 0.00 in0.0 mm 0.00 in0.0 mm
02:40 PM 74.1°F23.4°C 57.9°F14.4°C 57% 1.2 mph ESE1.9 kmh ESE 2.3 mph3.7 kmh 30.15 in1021.0 mb - 0.00 in0.0 mm 0.00 in0.0 mm
02:30 PM 74.8°F23.8°C 56.5°F13.6°C 53% 3.5 mph E5.6 kmh E 4.6 mph7.4 kmh 30.15 in1021.0 mb - 0.00 in0.0 mm 0.00 in0.0 mm
02:20 PM 74.8°F23.8°C 56.5°F13.6°C 53% 2.3 mph NE3.7 kmh NE 4.6 mph7.4 kmh 30.16 in1021.3 mb - 0.00 in0.0 mm 0.00 in0.0 mm
02:10 PM 72.3°F22.4°C 55.7°F13.2°C 56% 2.3 mph NE3.7 kmh NE 4.6 mph7.4 kmh 30.16 in1021.3 mb - 0.00 in0.0 mm 0.00 in0.0 mm
02:00 PM 72.4°F22.4°C 57.3°F14.1°C 59% 2.3 mph NNE3.7 kmh NNE 3.5 mph5.6 kmh 30.16 in1021.3 mb - 0.00 in0.0 mm 0.00 in0.0 mm
01:50 PM 72.3°F22.4°C 57.2°F14.0°C 59% 2.3 mph E3.7 kmh E 3.5 mph5.6 kmh 30.15 in1021.0 mb - 0.00 in0.0 mm 0.00 in0.0 mm
01:40 PM 73.1°F22.8°C 55.5°F13.1°C 54% 3.5 mph ESE5.6 kmh ESE 3.5 mph5.6 kmh 30.16 in1021.3 mb - 0.00 in0.0 mm 0.00 in0.0 mm
01:30 PM 75.4°F24.1°C 57.6°F14.2°C 54% 4.6 mph E7.4 kmh E 3.5 mph5.6 kmh 30.15 in1021.0 mb - 0.00 in0.0 mm 0.00 in0.0 mm
01:20 PM 72.2°F22.3°C 55.6°F13.1°C 56% 3.5 mph NE5.6 kmh NE 4.6 mph7.4 kmh 30.15 in1021.0 mb - 0.00 in0.0 mm 0.00 in0.0 mm
01:10 PM 74.9°F23.8°C 59.1°F15.1°C 58% 3.5 mph ESE5.6 kmh ESE 6.9 mph11.1 kmh 30.15 in1021.0 mb - 0.00 in0.0 mm 0.00 in0.0 mm
01:00 PM 73.6°F23.1°C 57.5°F14.2°C 57% 3.5 mph NE5.6 kmh NE 4.6 mph7.4 kmh 30.15 in1021.0 mb - 0.00 in0.0 mm 0.00 in0.0 mm
12:50 PM 71.6°F22.0°C 57.0°F13.9°C 60% 2.3 mph E3.7 kmh E 3.5 mph5.6 kmh 30.15 in1021.0 mb - 0.00 in0.0 mm 0.00 in0.0 mm
12:40 PM 73.8°F23.2°C 59.0°F15.0°C 60% Calm Calm 3.5 mph5.6 kmh 30.16 in1021.3 mb - 0.00 in0.0 mm 0.00 in0.0 mm
12:30 PM 72.6°F22.6°C 57.0°F13.9°C 58% 3.5 mph WNW5.6 kmh WNW 3.5 mph5.6 kmh 30.16 in1021.3 mb - 0.00 in0.0 mm 0.00 in0.0 mm
12:20 PM 73.0°F22.8°C 55.9°F13.3°C 55% 2.3 mph NNE3.7 kmh NNE 3.5 mph5.6 kmh 30.16 in1021.3 mb - 0.00 in0.0 mm 0.00 in0.0 mm
12:10 PM 73.0°F22.8°C 58.8°F14.9°C 61% 2.3 mph NE3.7 kmh NE 4.6 mph7.4 kmh 30.16 in1021.3 mb - 0.00 in0.0 mm 0.00 in0.0 mm
12:00 PM 72.2°F22.3°C 56.1°F13.4°C 57% 4.6 mph E7.4 kmh E 10.4 mph16.7 kmh 30.17 in1021.7 mb - 0.00 in0.0 mm 0.00 in0.0 mm
11:50 AM 72.7°F22.6°C 58.4°F14.7°C 61% 4.6 mph NE7.4 kmh NE 6.9 mph11.1 kmh 30.17 in1021.7 mb - 0.00 in0.0 mm 0.00 in0.0 mm
11:40 AM 72.0°F22.2°C 55.9°F13.3°C 57% 2.3 mph NE3.7 kmh NE 4.6 mph7.4 kmh 30.17 in1021.7 mb - 0.00 in0.0 mm 0.00 in0.0 mm
11:30 AM 72.1°F22.3°C 57.0°F13.9°C 59% 5.8 mph E9.3 kmh E 10.4 mph16.7 kmh 30.17 in1021.7 mb - 0.00 in0.0 mm 0.00 in0.0 mm
11:20 AM 72.1°F22.3°C 57.9°F14.4°C 61% 3.5 mph N5.6 kmh N 4.6 mph7.4 kmh 30.17 in1021.7 mb - 0.00 in0.0 mm 0.00 in0.0 mm
11:10 AM 72.1°F22.3°C 60.1°F15.6°C 66% 3.5 mph NE5.6 kmh NE 5.8 mph9.3 kmh 30.17 in1021.7 mb - 0.00 in0.0 mm 0.00 in0.0 mm
11:00 AM 71.1°F21.7°C 59.2°F15.1°C 66% 3.5 mph NNE5.6 kmh NNE 5.8 mph9.3 kmh 30.17 in1021.7 mb - 0.00 in0.0 mm 0.00 in0.0 mm
10:50 AM 70.9°F21.6°C 59.0°F15.0°C 66% 4.6 mph ESE7.4 kmh ESE 6.9 mph11.1 kmh 30.17 in1021.7 mb - 0.00 in0.0 mm 0.00 in0.0 mm
10:40 AM 69.7°F20.9°C 58.7°F14.8°C 68% 4.6 mph ENE7.4 kmh ENE 5.8 mph9.3 kmh 30.17 in1021.7 mb - 0.00 in0.0 mm 0.00 in0.0 mm
10:30 AM 67.8°F19.9°C 58.4°F14.7°C 72% 4.6 mph E7.4 kmh E 6.9 mph11.1 kmh 30.17 in1021.7 mb - 0.00 in0.0 mm 0.00 in0.0 mm
10:20 AM 68.1°F20.1°C 58.3°F14.6°C 71% 4.6 mph ENE7.4 kmh ENE 9.2 mph14.8 kmh 30.17 in1021.7 mb - 0.00 in0.0 mm 0.00 in0.0 mm
10:10 AM 67.4°F19.7°C 59.6°F15.3°C 76% 3.5 mph NE5.6 kmh NE 4.6 mph7.4 kmh 30.17 in1021.7 mb - 0.00 in0.0 mm 0.00 in0.0 mm
10:00 AM 67.7°F19.8°C 58.4°F14.7°C 72% 4.6 mph E7.4 kmh E 11.5 mph18.5 kmh 30.17 in1021.7 mb - 0.00 in0.0 mm 0.00 in0.0 mm
09:50 AM 68.4°F20.2°C 59.0°F15.0°C 72% 5.8 mph NE9.3 kmh NE 10.4 mph16.7 kmh 30.18 in1022.0 mb - 0.00 in0.0 mm 0.00 in0.0 mm
09:40 AM 67.8°F19.9°C 59.2°F15.1°C 74% 6.9 mph E11.1 kmh E 8.1 mph13.0 kmh 30.18 in1022.0 mb - 0.00 in0.0 mm 0.00 in0.0 mm
09:30 AM 68.1°F20.1°C 59.1°F15.1°C 73% 4.6 mph NE7.4 kmh NE 3.5 mph5.6 kmh 30.18 in1022.0 mb - 0.00 in0.0 mm 0.00 in0.0 mm
09:20 AM 67.5°F19.7°C 60.4°F15.8°C 78% 3.5 mph NE5.6 kmh NE 5.8 mph9.3 kmh 30.17 in1021.7 mb - 0.00 in0.0 mm 0.00 in0.0 mm
09:10 AM 65.0°F18.3°C 59.0°F15.0°C 81% 2.3 mph N3.7 kmh N 3.5 mph5.6 kmh 30.17 in1021.7 mb - 0.00 in0.0 mm 0.00 in0.0 mm
09:00 AM 63.9°F17.7°C 56.6°F13.7°C 77% 4.6 mph NE7.4 kmh NE 3.5 mph5.6 kmh 30.17 in1021.7 mb - 0.00 in0.0 mm 0.00 in0.0 mm
08:50 AM 65.2°F18.4°C 58.8°F14.9°C 80% 1.2 mph N1.9 kmh N 3.5 mph5.6 kmh 30.17 in1021.7 mb - 0.00 in0.0 mm 0.00 in0.0 mm
08:40 AM 65.2°F18.4°C 57.5°F14.2°C 76% 2.3 mph NW3.7 kmh NW 3.5 mph5.6 kmh 30.17 in1021.7 mb - 0.00 in0.0 mm 0.00 in0.0 mm
08:30 AM 64.3°F17.9°C 58.0°F14.4°C 80% 3.5 mph N5.6 kmh N 3.5 mph5.6 kmh 30.16 in1021.3 mb - 0.00 in0.0 mm 0.00 in0.0 mm
08:20 AM 62.1°F16.7°C 57.5°F14.2°C 85% 1.2 mph WNW1.9 kmh WNW 3.5 mph5.6 kmh 30.16 in1021.3 mb - 0.00 in0.0 mm 0.00 in0.0 mm
08:10 AM 60.9°F16.1°C 56.6°F13.7°C 86% 2.3 mph W3.7 kmh W 2.3 mph3.7 kmh 30.16 in1021.3 mb - 0.00 in0.0 mm 0.00 in0.0 mm
08:00 AM 60.7°F15.9°C 56.1°F13.4°C 85% 1.2 mph W1.9 kmh W 2.3 mph3.7 kmh 30.16 in1021.3 mb - 0.00 in0.0 mm 0.00 in0.0 mm
07:50 AM 60.9°F16.1°C 56.0°F13.3°C 84% 2.3 mph W3.7 kmh W 3.5 mph5.6 kmh 30.16 in1021.3 mb - 0.00 in0.0 mm 0.00 in0.0 mm
07:40 AM 61.3°F16.3°C 56.4°F13.6°C 84% Calm Calm 1.2 mph1.9 kmh 30.15 in1021.0 mb - 0.00 in0.0 mm 0.00 in0.0 mm
07:30 AM 60.7°F15.9°C 56.2°F13.4°C 85% 3.5 mph NW5.6 kmh NW 3.5 mph5.6 kmh 30.15 in1021.0 mb - 0.00 in0.0 mm 0.00 in0.0 mm
07:20 AM 60.0°F15.6°C 55.8°F13.2°C 86% 1.2 mph N1.9 kmh N 3.5 mph5.6 kmh 30.15 in1021.0 mb - 0.00 in0.0 mm 0.00 in0.0 mm
07:10 AM 59.2°F15.1°C 55.7°F13.2°C 88% 1.2 mph NW1.9 kmh NW 1.2 mph1.9 kmh 30.14 in1020.7 mb - 0.00 in0.0 mm 0.00 in0.0 mm
07:00 AM 58.3°F14.6°C 55.4°F13.0°C 90% 1.2 mph WNW1.9 kmh WNW 2.3 mph3.7 kmh 30.14 in1020.7 mb - 0.00 in0.0 mm 0.00 in0.0 mm
06:50 AM 57.9°F14.4°C 54.7°F12.6°C 89% 2.3 mph W3.7 kmh W 3.5 mph5.6 kmh 30.14 in1020.7 mb - 0.00 in0.0 mm 0.00 in0.0 mm
06:40 AM 57.6°F14.2°C 54.7°F12.6°C 90% 1.2 mph W1.9 kmh W 2.3 mph3.7 kmh 30.13 in1020.3 mb - 0.00 in0.0 mm 0.00 in0.0 mm
06:30 AM 57.5°F14.2°C 54.3°F12.4°C 89% 2.3 mph W3.7 kmh W 3.5 mph5.6 kmh 30.13 in1020.3 mb - 0.00 in0.0 mm 0.00 in0.0 mm
06:20 AM 57.4°F14.1°C 54.2°F12.3°C 89% 1.2 mph W1.9 kmh W 6.9 mph11.1 kmh 30.12 in1020.0 mb - 0.00 in0.0 mm 0.00 in0.0 mm
06:10 AM 57.7°F14.3°C 54.5°F12.5°C 89% 2.3 mph WNW3.7 kmh WNW 3.5 mph5.6 kmh 30.12 in1020.0 mb - 0.00 in0.0 mm 0.00 in0.0 mm
06:00 AM 57.2°F14.0°C 54.6°F12.6°C 91% 2.3 mph WNW3.7 kmh WNW 3.5 mph5.6 kmh 30.11 in1019.6 mb - 0.00 in0.0 mm 0.00 in0.0 mm
05:50 AM 56.1°F13.4°C 53.8°F12.1°C 92% 2.3 mph WNW3.7 kmh WNW 3.5 mph5.6 kmh 30.11 in1019.6 mb - 0.00 in0.0 mm 0.00 in0.0 mm
05:40 AM 56.7°F13.7°C 53.8°F12.1°C 90% 2.3 mph WNW3.7 kmh WNW 2.3 mph3.7 kmh 30.11 in1019.6 mb - 0.00 in0.0 mm 0.00 in0.0 mm
05:30 AM 57.6°F14.2°C 54.1°F12.3°C 88% 2.3 mph WNW3.7 kmh WNW 3.5 mph5.6 kmh 30.10 in1019.3 mb - 0.00 in0.0 mm 0.00 in0.0 mm
05:20 AM 58.2°F14.6°C 54.3°F12.4°C 87% 1.2 mph WNW1.9 kmh WNW 2.3 mph3.7 kmh 30.10 in1019.3 mb - 0.00 in0.0 mm 0.00 in0.0 mm
05:10 AM 58.6°F14.8°C 54.4°F12.4°C 86% 1.2 mph WNW1.9 kmh WNW 2.3 mph3.7 kmh 30.10 in1019.3 mb - 0.00 in0.0 mm 0.00 in0.0 mm
05:00 AM 58.5°F14.7°C 54.6°F12.6°C 87% 2.3 mph WNW3.7 kmh WNW 3.5 mph5.6 kmh 30.09 in1019.0 mb - 0.00 in0.0 mm 0.00 in0.0 mm
04:50 AM 58.1°F14.5°C 54.2°F12.3°C 87% 1.2 mph WNW1.9 kmh WNW 2.3 mph3.7 kmh 30.09 in1019.0 mb - 0.00 in0.0 mm 0.00 in0.0 mm
04:40 AM 58.3°F14.6°C 54.4°F12.4°C 87% 1.2 mph WNW1.9 kmh WNW 2.3 mph3.7 kmh 30.09 in1019.0 mb - 0.00 in0.0 mm 0.00 in0.0 mm
04:30 AM 58.6°F14.8°C 54.4°F12.4°C 86% 2.3 mph NW3.7 kmh NW 3.5 mph5.6 kmh 30.09 in1019.0 mb - 0.00 in0.0 mm 0.00 in0.0 mm
04:20 AM 58.4°F14.7°C 54.5°F12.5°C 87% 2.3 mph NW3.7 kmh NW 3.5 mph5.6 kmh 30.09 in1019.0 mb - 0.00 in0.0 mm 0.00 in0.0 mm
04:10 AM 58.8°F14.9°C 54.6°F12.6°C 86% 2.3 mph NW3.7 kmh NW 3.5 mph5.6 kmh 30.08 in1018.6 mb - 0.00 in0.0 mm 0.00 in0.0 mm
04:00 AM 59.1°F15.1°C 54.9°F12.7°C 86% 1.2 mph NW1.9 kmh NW 2.3 mph3.7 kmh 30.08 in1018.6 mb - 0.00 in0.0 mm 0.00 in0.0 mm
03:50 AM 59.3°F15.2°C 55.1°F12.8°C 86% 1.2 mph W1.9 kmh W 3.5 mph5.6 kmh 30.08 in1018.6 mb - 0.00 in0.0 mm 0.00 in0.0 mm
03:40 AM 59.2°F15.1°C 55.3°F12.9°C 87% 2.3 mph WNW3.7 kmh WNW 3.5 mph5.6 kmh 30.07 in1018.3 mb - 0.00 in0.0 mm 0.00 in0.0 mm
03:30 AM 59.3°F15.2°C 55.1°F12.8°C 86% 1.2 mph WNW1.9 kmh WNW 2.3 mph3.7 kmh 30.08 in1018.6 mb - 0.00 in0.0 mm 0.00 in0.0 mm
03:20 AM 59.7°F15.4°C 55.5°F13.1°C 86% 2.3 mph NW3.7 kmh NW 3.5 mph5.6 kmh 30.08 in1018.6 mb - 0.00 in0.0 mm 0.00 in0.0 mm
03:10 AM 59.6°F15.3°C 55.4°F13.0°C 86% 2.3 mph WNW3.7 kmh WNW 3.5 mph5.6 kmh 30.07 in1018.3 mb - 0.00 in0.0 mm 0.00 in0.0 mm
03:00 AM 59.9°F15.5°C 55.7°F13.2°C 86% 1.2 mph NW1.9 kmh NW 2.3 mph3.7 kmh 30.07 in1018.3 mb - 0.00 in0.0 mm 0.00 in0.0 mm
02:50 AM 60.0°F15.6°C 55.8°F13.2°C 86% 1.2 mph NW1.9 kmh NW 3.5 mph5.6 kmh 30.07 in1018.3 mb - 0.00 in0.0 mm 0.00 in0.0 mm
02:40 AM 59.8°F15.4°C 55.9°F13.3°C 87% 2.3 mph NW3.7 kmh NW 3.5 mph5.6 kmh 30.07 in1018.3 mb - 0.00 in0.0 mm 0.00 in0.0 mm
02:30 AM 59.9°F15.5°C 56.3°F13.5°C 88% 2.3 mph NW3.7 kmh NW 3.5 mph5.6 kmh 30.07 in1018.3 mb - 0.00 in0.0 mm 0.00 in0.0 mm
02:20 AM 60.2°F15.7°C 56.3°F13.5°C 87% 2.3 mph W3.7 kmh W 3.5 mph5.6 kmh 30.06 in1017.9 mb - 0.00 in0.0 mm 0.00 in0.0 mm
02:10 AM 60.2°F15.7°C 56.6°F13.7°C 88% 1.2 mph NW1.9 kmh NW 2.3 mph3.7 kmh 30.06 in1017.9 mb - 0.00 in0.0 mm 0.00 in0.0 mm
02:00 AM 60.0°F15.6°C 56.7°F13.7°C 89% 2.3 mph WNW3.7 kmh WNW 5.8 mph9.3 kmh 30.07 in1018.3 mb - 0.00 in0.0 mm 0.00 in0.0 mm
01:50 AM 60.0°F15.6°C 57.1°F13.9°C 90% 1.2 mph NW1.9 kmh NW 5.8 mph9.3 kmh 30.07 in1018.3 mb - 0.00 in0.0 mm 0.00 in0.0 mm
01:40 AM 60.2°F15.7°C 56.9°F13.8°C 89% 3.5 mph W5.6 kmh W 6.9 mph11.1 kmh 30.07 in1018.3 mb - 0.00 in0.0 mm 0.00 in0.0 mm
01:30 AM 60.4°F15.8°C 57.1°F13.9°C 89% 3.5 mph WNW5.6 kmh WNW 4.6 mph7.4 kmh 30.07 in1018.3 mb - 0.00 in0.0 mm 0.00 in0.0 mm
01:20 AM 60.4°F15.8°C 57.5°F14.2°C 90% 3.5 mph WNW5.6 kmh WNW 3.5 mph5.6 kmh 30.07 in1018.3 mb - 0.00 in0.0 mm 0.00 in0.0 mm
01:10 AM 60.3°F15.7°C 57.4°F14.1°C 90% 4.6 mph WNW7.4 kmh WNW 5.8 mph9.3 kmh 30.07 in1018.3 mb - 0.00 in0.0 mm 0.00 in0.0 mm
01:00 AM 60.5°F15.8°C 57.6°F14.2°C 90% 2.3 mph WNW3.7 kmh WNW 3.5 mph5.6 kmh 30.07 in1018.3 mb - 0.00 in0.0 mm 0.00 in0.0 mm
12:50 AM 60.4°F15.8°C 57.5°F14.2°C 90% 2.3 mph W3.7 kmh W 3.5 mph5.6 kmh 30.08 in1018.6 mb - 0.00 in0.0 mm 0.00 in0.0 mm
12:40 AM 60.6°F15.9°C 57.3°F14.1°C 89% 1.2 mph WNW1.9 kmh WNW 2.3 mph3.7 kmh 30.07 in1018.3 mb - 0.00 in0.0 mm 0.00 in0.0 mm
12:30 AM 61.1°F16.2°C 57.5°F14.2°C 88% 1.2 mph WNW1.9 kmh WNW 3.5 mph5.6 kmh 30.07 in1018.3 mb - 0.00 in0.0 mm 0.00 in0.0 mm
12:20 AM 61.1°F16.2°C 57.8°F14.3°C 89% 3.5 mph WNW5.6 kmh WNW 4.6 mph7.4 kmh 30.07 in1018.3 mb - 0.00 in0.0 mm 0.00 in0.0 mm
12:10 AM 61.3°F16.3°C 57.7°F14.3°C 88% 1.2 mph NW1.9 kmh NW 4.6 mph7.4 kmh 30.07 in1018.3 mb - 0.00 in0.0 mm 0.00 in0.0 mm
12:00 AM 61.7°F16.5°C 58.1°F14.5°C 88% 2.3 mph NW3.7 kmh NW 3.5 mph5.6 kmh 30.06 in1017.9 mb - 0.00 in0.0 mm 0.00 in0.0 mm